sensor_id;sensor_type;location;lat;lon;timestamp;P1;durP1;ratioP1;P2;durP2;ratioP2
25365;SDS011;13315;48.274;-1.900;2022-12-07T00:01:13;4.22;;;2.72;;
25365;SDS011;13315;48.274;-1.900;2022-12-07T00:03:41;4.05;;;2.53;;
25365;SDS011;13315;48.274;-1.900;2022-12-07T00:06:09;3.80;;;2.90;;
25365;SDS011;13315;48.274;-1.900;2022-12-07T00:08:36;3.70;;;2.88;;
25365;SDS011;13315;48.274;-1.900;2022-12-07T00:11:09;4.50;;;2.83;;
25365;SDS011;13315;48.274;-1.900;2022-12-07T00:13:39;4.40;;;2.92;;
25365;SDS011;13315;48.274;-1.900;2022-12-07T00:16:07;3.45;;;2.72;;
25365;SDS011;13315;48.274;-1.900;2022-12-07T00:18:34;6.18;;;3.08;;
25365;SDS011;13315;48.274;-1.900;2022-12-07T00:21:04;4.07;;;2.95;;
25365;SDS011;13315;48.274;-1.900;2022-12-07T00:23:32;4.75;;;2.90;;
25365;SDS011;13315;48.274;-1.900;2022-12-07T00:26:09;3.80;;;3.08;;
25365;SDS011;13315;48.274;-1.900;2022-12-07T00:28:40;5.68;;;3.10;;
25365;SDS011;13315;48.274;-1.900;2022-12-07T00:31:07;3.55;;;2.65;;
25365;SDS011;13315;48.274;-1.900;2022-12-07T00:33:35;4.70;;;2.70;;
25365;SDS011;13315;48.274;-1.900;2022-12-07T00:36:02;4.60;;;3.05;;
25365;SDS011;13315;48.274;-1.900;2022-12-07T00:38:31;4.97;;;2.92;;
25365;SDS011;13315;48.274;-1.900;2022-12-07T00:40:59;4.95;;;2.70;;
25365;SDS011;13315;48.274;-1.900;2022-12-07T00:43:26;4.47;;;3.00;;
25365;SDS011;13315;48.274;-1.900;2022-12-07T00:45:52;4.28;;;2.90;;
25365;SDS011;13315;48.274;-1.900;2022-12-07T00:48:19;3.30;;;2.70;;
25365;SDS011;13315;48.274;-1.900;2022-12-07T00:50:46;4.22;;;3.10;;
25365;SDS011;13315;48.274;-1.900;2022-12-07T00:53:11;5.22;;;3.03;;
25365;SDS011;13315;48.274;-1.900;2022-12-07T00:55:37;5.10;;;2.90;;
25365;SDS011;13315;48.274;-1.900;2022-12-07T00:58:03;4.60;;;3.30;;
25365;SDS011;13315;48.274;-1.900;2022-12-07T01:00:29;5.03;;;3.03;;
25365;SDS011;13315;48.274;-1.900;2022-12-07T01:02:55;4.93;;;3.30;;
25365;SDS011;13315;48.274;-1.900;2022-12-07T01:05:21;5.43;;;3.10;;
25365;SDS011;13315;48.274;-1.900;2022-12-07T01:07:47;5.13;;;3.20;;
25365;SDS011;13315;48.274;-1.900;2022-12-07T01:10:13;4.30;;;3.03;;
25365;SDS011;13315;48.274;-1.900;2022-12-07T01:12:40;4.28;;;3.05;;
25365;SDS011;13315;48.274;-1.900;2022-12-07T01:15:06;5.47;;;2.90;;
25365;SDS011;13315;48.274;-1.900;2022-12-07T01:17:32;6.43;;;3.63;;
25365;SDS011;13315;48.274;-1.900;2022-12-07T01:19:58;4.43;;;3.08;;
25365;SDS011;13315;48.274;-1.900;2022-12-07T01:22:24;4.40;;;2.80;;
25365;SDS011;13315;48.274;-1.900;2022-12-07T01:24:49;5.47;;;3.10;;
25365;SDS011;13315;48.274;-1.900;2022-12-07T01:27:15;4.80;;;3.40;;
25365;SDS011;13315;48.274;-1.900;2022-12-07T01:29:41;3.78;;;2.70;;
25365;SDS011;13315;48.274;-1.900;2022-12-07T01:32:07;4.05;;;3.00;;
25365;SDS011;13315;48.274;-1.900;2022-12-07T01:34:32;5.10;;;3.35;;
25365;SDS011;13315;48.274;-1.900;2022-12-07T01:36:58;4.15;;;3.22;;
25365;SDS011;13315;48.274;-1.900;2022-12-07T01:39:24;4.78;;;2.90;;
25365;SDS011;13315;48.274;-1.900;2022-12-07T01:41:50;4.07;;;2.78;;
25365;SDS011;13315;48.274;-1.900;2022-12-07T01:44:20;4.25;;;2.92;;
25365;SDS011;13315;48.274;-1.900;2022-12-07T01:46:49;4.15;;;2.80;;
25365;SDS011;13315;48.274;-1.900;2022-12-07T01:54:46;4.38;;;3.08;;
25365;SDS011;13315;48.274;-1.900;2022-12-07T01:59:41;5.18;;;2.97;;
25365;SDS011;13315;48.274;-1.900;2022-12-07T02:05:27;6.20;;;3.13;;
25365;SDS011;13315;48.274;-1.900;2022-12-07T02:07:55;3.95;;;3.08;;
25365;SDS011;13315;48.274;-1.900;2022-12-07T02:10:25;6.25;;;3.42;;
25365;SDS011;13315;48.274;-1.900;2022-12-07T02:12:55;5.05;;;3.17;;
25365;SDS011;13315;48.274;-1.900;2022-12-07T02:15:26;3.30;;;2.97;;
25365;SDS011;13315;48.274;-1.900;2022-12-07T02:21:04;4.20;;;2.90;;
25365;SDS011;13315;48.274;-1.900;2022-12-07T02:24:10;4.07;;;3.15;;
25365;SDS011;13315;48.274;-1.900;2022-12-07T02:30:10;5.75;;;3.42;;
25365;SDS011;13315;48.274;-1.900;2022-12-07T02:32:37;8.43;;;3.13;;
25365;SDS011;13315;48.274;-1.900;2022-12-07T02:40:22;4.25;;;3.30;;
25365;SDS011;13315;48.274;-1.900;2022-12-07T02:43:16;4.50;;;2.97;;
25365;SDS011;13315;48.274;-1.900;2022-12-07T02:45:50;5.85;;;3.40;;
25365;SDS011;13315;48.274;-1.900;2022-12-07T02:48:19;4.43;;;3.10;;
25365;SDS011;13315;48.274;-1.900;2022-12-07T02:50:49;5.50;;;3.03;;
25365;SDS011;13315;48.274;-1.900;2022-12-07T02:53:35;4.70;;;3.13;;
25365;SDS011;13315;48.274;-1.900;2022-12-07T03:07:26;5.75;;;3.70;;
25365;SDS011;13315;48.274;-1.900;2022-12-07T03:16:15;3.47;;;3.05;;
25365;SDS011;13315;48.274;-1.900;2022-12-07T03:21:21;4.90;;;3.10;;
25365;SDS011;13315;48.274;-1.900;2022-12-07T03:23:51;5.50;;;3.67;;
25365;SDS011;13315;48.274;-1.900;2022-12-07T03:26:21;4.72;;;3.60;;
25365;SDS011;13315;48.274;-1.900;2022-12-07T03:28:52;3.53;;;2.85;;
25365;SDS011;13315;48.274;-1.900;2022-12-07T03:31:22;6.32;;;3.30;;
25365;SDS011;13315;48.274;-1.900;2022-12-07T03:36:28;4.95;;;3.30;;
25365;SDS011;13315;48.274;-1.900;2022-12-07T03:41:39;4.72;;;3.50;;
25365;SDS011;13315;48.274;-1.900;2022-12-07T03:44:05;5.28;;;3.40;;
25365;SDS011;13315;48.274;-1.900;2022-12-07T03:49:14;4.13;;;3.10;;
25365;SDS011;13315;48.274;-1.900;2022-12-07T03:55:11;6.30;;;3.33;;
25365;SDS011;13315;48.274;-1.900;2022-12-07T03:57:44;5.30;;;3.28;;
25365;SDS011;13315;48.274;-1.900;2022-12-07T04:02:38;5.57;;;3.10;;
25365;SDS011;13315;48.274;-1.900;2022-12-07T04:05:05;4.15;;;3.20;;
25365;SDS011;13315;48.274;-1.900;2022-12-07T04:07:31;5.80;;;3.40;;
25365;SDS011;13315;48.274;-1.900;2022-12-07T04:09:57;4.97;;;3.42;;
25365;SDS011;13315;48.274;-1.900;2022-12-07T04:12:23;6.45;;;3.35;;
25365;SDS011;13315;48.274;-1.900;2022-12-07T04:14:49;5.85;;;3.25;;
25365;SDS011;13315;48.274;-1.900;2022-12-07T04:17:14;4.65;;;3.10;;
25365;SDS011;13315;48.274;-1.900;2022-12-07T04:19:40;5.32;;;2.92;;
25365;SDS011;13315;48.274;-1.900;2022-12-07T04:22:06;5.03;;;3.70;;
25365;SDS011;13315;48.274;-1.900;2022-12-07T04:24:32;4.43;;;3.03;;
25365;SDS011;13315;48.274;-1.900;2022-12-07T04:26:59;5.65;;;3.38;;
25365;SDS011;13315;48.274;-1.900;2022-12-07T04:29:26;5.60;;;3.10;;
25365;SDS011;13315;48.274;-1.900;2022-12-07T04:31:52;4.05;;;3.00;;
25365;SDS011;13315;48.274;-1.900;2022-12-07T04:34:18;4.85;;;2.90;;
25365;SDS011;13315;48.274;-1.900;2022-12-07T04:36:45;5.18;;;3.63;;
25365;SDS011;13315;48.274;-1.900;2022-12-07T04:39:22;4.50;;;2.78;;
25365;SDS011;13315;48.274;-1.900;2022-12-07T04:41:51;4.40;;;3.05;;
25365;SDS011;13315;48.274;-1.900;2022-12-07T04:44:17;5.20;;;3.25;;
25365;SDS011;13315;48.274;-1.900;2022-12-07T04:46:44;5.85;;;3.33;;
25365;SDS011;13315;48.274;-1.900;2022-12-07T04:49:10;4.35;;;3.28;;
25365;SDS011;13315;48.274;-1.900;2022-12-07T04:51:37;4.63;;;3.00;;
25365;SDS011;13315;48.274;-1.900;2022-12-07T04:54:03;4.70;;;2.80;;
25365;SDS011;13315;48.274;-1.900;2022-12-07T04:56:29;4.47;;;3.00;;
25365;SDS011;13315;48.274;-1.900;2022-12-07T04:58:54;4.35;;;2.70;;
25365;SDS011;13315;48.274;-1.900;2022-12-07T05:01:21;6.55;;;3.13;;
25365;SDS011;13315;48.274;-1.900;2022-12-07T05:03:47;4.07;;;2.90;;
25365;SDS011;13315;48.274;-1.900;2022-12-07T05:06:13;4.50;;;3.28;;
25365;SDS011;13315;48.274;-1.900;2022-12-07T05:08:39;6.43;;;3.22;;
25365;SDS011;13315;48.274;-1.900;2022-12-07T05:11:06;6.13;;;3.28;;
25365;SDS011;13315;48.274;-1.900;2022-12-07T05:13:33;4.43;;;2.97;;
25365;SDS011;13315;48.274;-1.900;2022-12-07T05:15:59;5.40;;;3.28;;
25365;SDS011;13315;48.274;-1.900;2022-12-07T05:18:25;5.63;;;3.33;;
25365;SDS011;13315;48.274;-1.900;2022-12-07T05:20:51;4.88;;;3.00;;
25365;SDS011;13315;48.274;-1.900;2022-12-07T05:23:17;4.18;;;3.08;;
25365;SDS011;13315;48.274;-1.900;2022-12-07T05:25:43;4.85;;;2.90;;
25365;SDS011;13315;48.274;-1.900;2022-12-07T05:28:09;5.57;;;2.92;;
25365;SDS011;13315;48.274;-1.900;2022-12-07T05:30:35;5.03;;;3.30;;
25365;SDS011;13315;48.274;-1.900;2022-12-07T05:33:01;5.40;;;3.05;;
25365;SDS011;13315;48.274;-1.900;2022-12-07T05:35:28;6.00;;;3.40;;
25365;SDS011;13315;48.274;-1.900;2022-12-07T05:37:54;5.43;;;2.95;;
25365;SDS011;13315;48.274;-1.900;2022-12-07T05:40:21;5.30;;;3.17;;
25365;SDS011;13315;48.274;-1.900;2022-12-07T05:42:46;5.18;;;2.80;;
25365;SDS011;13315;48.274;-1.900;2022-12-07T05:45:12;4.40;;;3.10;;
25365;SDS011;13315;48.274;-1.900;2022-12-07T05:47:38;6.25;;;3.92;;
25365;SDS011;13315;48.274;-1.900;2022-12-07T05:50:04;5.35;;;2.92;;
25365;SDS011;13315;48.274;-1.900;2022-12-07T05:52:31;5.88;;;3.25;;
25365;SDS011;13315;48.274;-1.900;2022-12-07T05:54:57;4.43;;;3.05;;
25365;SDS011;13315;48.274;-1.900;2022-12-07T05:57:22;5.22;;;3.03;;
25365;SDS011;13315;48.274;-1.900;2022-12-07T05:59:48;4.57;;;2.97;;
25365;SDS011;13315;48.274;-1.900;2022-12-07T06:02:15;5.07;;;3.13;;
25365;SDS011;13315;48.274;-1.900;2022-12-07T06:04:42;4.03;;;2.90;;
25365;SDS011;13315;48.274;-1.900;2022-12-07T06:07:11;5.35;;;3.20;;
25365;SDS011;13315;48.274;-1.900;2022-12-07T06:09:38;4.95;;;3.20;;
25365;SDS011;13315;48.274;-1.900;2022-12-07T06:12:04;4.78;;;2.90;;
25365;SDS011;13315;48.274;-1.900;2022-12-07T06:14:48;4.18;;;2.85;;
25365;SDS011;13315;48.274;-1.900;2022-12-07T06:17:14;3.63;;;2.40;;
25365;SDS011;13315;48.274;-1.900;2022-12-07T06:19:41;3.50;;;2.38;;
25365;SDS011;13315;48.274;-1.900;2022-12-07T06:22:07;4.13;;;2.83;;
25365;SDS011;13315;48.274;-1.900;2022-12-07T06:24:36;3.97;;;2.78;;
25365;SDS011;13315;48.274;-1.900;2022-12-07T06:27:03;4.78;;;2.97;;
25365;SDS011;13315;48.274;-1.900;2022-12-07T06:29:29;7.43;;;3.10;;
25365;SDS011;13315;48.274;-1.900;2022-12-07T06:31:55;3.88;;;2.65;;
25365;SDS011;13315;48.274;-1.900;2022-12-07T06:34:21;3.53;;;2.53;;
25365;SDS011;13315;48.274;-1.900;2022-12-07T06:36:49;3.42;;;2.67;;
25365;SDS011;13315;48.274;-1.900;2022-12-07T06:39:17;3.80;;;3.10;;
25365;SDS011;13315;48.274;-1.900;2022-12-07T06:41:43;5.32;;;3.03;;
25365;SDS011;13315;48.274;-1.900;2022-12-07T06:44:09;4.78;;;3.22;;
25365;SDS011;13315;48.274;-1.900;2022-12-07T06:46:35;4.10;;;2.70;;
25365;SDS011;13315;48.274;-1.900;2022-12-07T06:49:01;9.23;;;3.33;;
25365;SDS011;13315;48.274;-1.900;2022-12-07T06:51:27;4.65;;;3.17;;
25365;SDS011;13315;48.274;-1.900;2022-12-07T06:53:53;3.67;;;2.85;;
25365;SDS011;13315;48.274;-1.900;2022-12-07T06:56:19;4.47;;;3.20;;
25365;SDS011;13315;48.274;-1.900;2022-12-07T06:58:44;8.05;;;2.55;;
25365;SDS011;13315;48.274;-1.900;2022-12-07T07:01:11;5.18;;;2.35;;
25365;SDS011;13315;48.274;-1.900;2022-12-07T07:03:38;4.07;;;2.97;;
25365;SDS011;13315;48.274;-1.900;2022-12-07T07:06:05;4.55;;;2.30;;
25365;SDS011;13315;48.274;-1.900;2022-12-07T07:08:32;7.28;;;3.00;;
25365;SDS011;13315;48.274;-1.900;2022-12-07T07:10:58;4.95;;;3.15;;
25365;SDS011;13315;48.274;-1.900;2022-12-07T07:13:24;7.72;;;2.42;;
25365;SDS011;13315;48.274;-1.900;2022-12-07T07:15:50;5.13;;;3.33;;
25365;SDS011;13315;48.274;-1.900;2022-12-07T07:18:16;4.78;;;2.67;;
25365;SDS011;13315;48.274;-1.900;2022-12-07T07:20:42;4.78;;;2.92;;
25365;SDS011;13315;48.274;-1.900;2022-12-07T07:23:08;5.97;;;2.67;;
25365;SDS011;13315;48.274;-1.900;2022-12-07T07:25:33;9.15;;;2.78;;
25365;SDS011;13315;48.274;-1.900;2022-12-07T07:28:00;5.65;;;2.65;;
25365;SDS011;13315;48.274;-1.900;2022-12-07T07:30:26;3.55;;;2.55;;
25365;SDS011;13315;48.274;-1.900;2022-12-07T07:32:55;3.88;;;2.65;;
25365;SDS011;13315;48.274;-1.900;2022-12-07T07:35:26;4.70;;;3.22;;
25365;SDS011;13315;48.274;-1.900;2022-12-07T07:37:53;5.43;;;2.80;;
25365;SDS011;13315;48.274;-1.900;2022-12-07T07:40:19;4.68;;;2.63;;
25365;SDS011;13315;48.274;-1.900;2022-12-07T07:42:46;7.10;;;2.97;;
25365;SDS011;13315;48.274;-1.900;2022-12-07T07:45:16;11.63;;;3.28;;
25365;SDS011;13315;48.274;-1.900;2022-12-07T07:47:42;10.52;;;2.72;;
25365;SDS011;13315;48.274;-1.900;2022-12-07T07:50:08;5.57;;;2.55;;
25365;SDS011;13315;48.274;-1.900;2022-12-07T07:52:35;5.72;;;2.50;;
25365;SDS011;13315;48.274;-1.900;2022-12-07T07:55:00;4.82;;;2.65;;
25365;SDS011;13315;48.274;-1.900;2022-12-07T07:57:26;5.85;;;2.50;;
25365;SDS011;13315;48.274;-1.900;2022-12-07T07:59:52;4.88;;;2.80;;
25365;SDS011;13315;48.274;-1.900;2022-12-07T08:02:18;4.43;;;2.40;;
25365;SDS011;13315;48.274;-1.900;2022-12-07T08:04:46;5.20;;;2.70;;
25365;SDS011;13315;48.274;-1.900;2022-12-07T08:07:12;3.35;;;2.33;;
25365;SDS011;13315;48.274;-1.900;2022-12-07T08:09:38;5.70;;;2.72;;
25365;SDS011;13315;48.274;-1.900;2022-12-07T08:12:04;5.18;;;3.03;;
25365;SDS011;13315;48.274;-1.900;2022-12-07T08:14:31;4.13;;;2.47;;
25365;SDS011;13315;48.274;-1.900;2022-12-07T08:16:57;6.05;;;2.78;;
25365;SDS011;13315;48.274;-1.900;2022-12-07T08:19:23;5.75;;;2.67;;
25365;SDS011;13315;48.274;-1.900;2022-12-07T08:21:48;4.63;;;2.55;;
25365;SDS011;13315;48.274;-1.900;2022-12-07T08:24:14;3.30;;;2.42;;
25365;SDS011;13315;48.274;-1.900;2022-12-07T08:26:41;4.28;;;2.63;;
25365;SDS011;13315;48.274;-1.900;2022-12-07T08:29:07;5.43;;;2.53;;
25365;SDS011;13315;48.274;-1.900;2022-12-07T08:31:33;3.80;;;2.47;;
25365;SDS011;13315;48.274;-1.900;2022-12-07T08:33:59;5.20;;;2.50;;
25365;SDS011;13315;48.274;-1.900;2022-12-07T08:36:25;4.78;;;3.28;;
25365;SDS011;13315;48.274;-1.900;2022-12-07T08:38:51;4.95;;;3.03;;
25365;SDS011;13315;48.274;-1.900;2022-12-07T08:41:17;6.18;;;3.25;;
25365;SDS011;13315;48.274;-1.900;2022-12-07T08:43:42;5.40;;;2.85;;
25365;SDS011;13315;48.274;-1.900;2022-12-07T08:48:44;5.35;;;3.00;;
25365;SDS011;13315;48.274;-1.900;2022-12-07T08:51:18;4.53;;;2.80;;
25365;SDS011;13315;48.274;-1.900;2022-12-07T08:53:44;5.55;;;2.95;;
25365;SDS011;13315;48.274;-1.900;2022-12-07T08:56:10;3.72;;;2.60;;
25365;SDS011;13315;48.274;-1.900;2022-12-07T08:58:36;6.47;;;3.05;;
25365;SDS011;13315;48.274;-1.900;2022-12-07T09:01:04;5.50;;;3.15;;
25365;SDS011;13315;48.274;-1.900;2022-12-07T09:03:30;5.15;;;3.17;;
25365;SDS011;13315;48.274;-1.900;2022-12-07T09:05:56;5.53;;;3.05;;
25365;SDS011;13315;48.274;-1.900;2022-12-07T09:08:23;5.78;;;3.28;;
25365;SDS011;13315;48.274;-1.900;2022-12-07T09:10:54;8.23;;;4.10;;
25365;SDS011;13315;48.274;-1.900;2022-12-07T09:13:20;5.53;;;3.90;;
25365;SDS011;13315;48.274;-1.900;2022-12-07T09:15:46;7.32;;;4.13;;
25365;SDS011;13315;48.274;-1.900;2022-12-07T09:18:12;8.20;;;4.28;;
25365;SDS011;13315;48.274;-1.900;2022-12-07T09:20:37;5.68;;;3.95;;
25365;SDS011;13315;48.274;-1.900;2022-12-07T09:23:05;6.05;;;3.78;;
25365;SDS011;13315;48.274;-1.900;2022-12-07T09:25:31;6.75;;;3.80;;
25365;SDS011;13315;48.274;-1.900;2022-12-07T09:27:58;4.25;;;3.30;;
25365;SDS011;13315;48.274;-1.900;2022-12-07T09:30:24;6.28;;;3.60;;
25365;SDS011;13315;48.274;-1.900;2022-12-07T09:32:52;4.90;;;3.63;;
25365;SDS011;13315;48.274;-1.900;2022-12-07T09:35:19;8.40;;;3.33;;
25365;SDS011;13315;48.274;-1.900;2022-12-07T09:37:45;5.28;;;3.00;;
25365;SDS011;13315;48.274;-1.900;2022-12-07T09:40:12;5.07;;;3.25;;
25365;SDS011;13315;48.274;-1.900;2022-12-07T09:42:41;5.72;;;3.35;;
25365;SDS011;13315;48.274;-1.900;2022-12-07T09:48:05;5.93;;;3.00;;
25365;SDS011;13315;48.274;-1.900;2022-12-07T09:50:39;3.78;;;2.58;;
25365;SDS011;13315;48.274;-1.900;2022-12-07T09:53:09;4.82;;;2.70;;
25365;SDS011;13315;48.274;-1.900;2022-12-07T09:55:58;2.45;;;1.98;;
25365;SDS011;13315;48.274;-1.900;2022-12-07T09:58:25;4.88;;;2.78;;
25365;SDS011;13315;48.274;-1.900;2022-12-07T10:00:53;3.23;;;2.40;;
25365;SDS011;13315;48.274;-1.900;2022-12-07T10:03:22;3.75;;;2.55;;
25365;SDS011;13315;48.274;-1.900;2022-12-07T10:05:49;3.78;;;2.40;;
25365;SDS011;13315;48.274;-1.900;2022-12-07T10:08:17;3.85;;;2.58;;
25365;SDS011;13315;48.274;-1.900;2022-12-07T10:10:43;3.13;;;1.95;;
25365;SDS011;13315;48.274;-1.900;2022-12-07T10:15:59;3.92;;;2.60;;
25365;SDS011;13315;48.274;-1.900;2022-12-07T10:20:50;6.72;;;2.67;;
25365;SDS011;13315;48.274;-1.900;2022-12-07T10:23:27;4.68;;;2.40;;
25365;SDS011;13315;48.274;-1.900;2022-12-07T10:25:53;4.82;;;2.50;;
25365;SDS011;13315;48.274;-1.900;2022-12-07T10:28:20;2.67;;;2.22;;
25365;SDS011;13315;48.274;-1.900;2022-12-07T10:30:51;4.20;;;2.50;;
25365;SDS011;13315;48.274;-1.900;2022-12-07T10:33:31;5.07;;;2.75;;
25365;SDS011;13315;48.274;-1.900;2022-12-07T10:35:59;4.00;;;2.60;;
25365;SDS011;13315;48.274;-1.900;2022-12-07T10:38:26;3.55;;;2.25;;
25365;SDS011;13315;48.274;-1.900;2022-12-07T10:41:02;4.88;;;2.45;;
25365;SDS011;13315;48.274;-1.900;2022-12-07T10:43:32;7.80;;;2.63;;
25365;SDS011;13315;48.274;-1.900;2022-12-07T10:46:13;3.75;;;2.50;;
25365;SDS011;13315;48.274;-1.900;2022-12-07T10:54:50;9.52;;;3.33;;
25365;SDS011;13315;48.274;-1.900;2022-12-07T11:00:25;5.55;;;3.65;;
25365;SDS011;13315;48.274;-1.900;2022-12-07T11:11:27;15.20;;;4.65;;
25365;SDS011;13315;48.274;-1.900;2022-12-07T11:25:15;7.25;;;4.18;;
25365;SDS011;13315;48.274;-1.900;2022-12-07T11:28:09;8.82;;;4.60;;
25365;SDS011;13315;48.274;-1.900;2022-12-07T11:33:39;7.63;;;4.03;;
25365;SDS011;13315;48.274;-1.900;2022-12-07T11:41:51;8.10;;;4.20;;
25365;SDS011;13315;48.274;-1.900;2022-12-07T11:47:09;5.70;;;3.38;;
25365;SDS011;13315;48.274;-1.900;2022-12-07T11:49:44;5.90;;;3.35;;
25365;SDS011;13315;48.274;-1.900;2022-12-07T11:54:44;4.63;;;3.15;;
25365;SDS011;13315;48.274;-1.900;2022-12-07T12:00:06;5.47;;;3.17;;
25365;SDS011;13315;48.274;-1.900;2022-12-07T12:05:18;5.10;;;3.28;;
25365;SDS011;13315;48.274;-1.900;2022-12-07T12:07:47;6.25;;;3.05;;
25365;SDS011;13315;48.274;-1.900;2022-12-07T12:10:30;4.35;;;3.22;;
25365;SDS011;13315;48.274;-1.900;2022-12-07T12:18:56;4.65;;;2.90;;
25365;SDS011;13315;48.274;-1.900;2022-12-07T12:21:43;4.82;;;3.00;;
25365;SDS011;13315;48.274;-1.900;2022-12-07T12:24:15;6.70;;;3.20;;
25365;SDS011;13315;48.274;-1.900;2022-12-07T12:26:52;5.78;;;2.35;;
25365;SDS011;13315;48.274;-1.900;2022-12-07T12:32:06;4.60;;;3.08;;
25365;SDS011;13315;48.274;-1.900;2022-12-07T12:42:49;4.45;;;2.60;;
25365;SDS011;13315;48.274;-1.900;2022-12-07T12:47:53;5.60;;;2.20;;
25365;SDS011;13315;48.274;-1.900;2022-12-07T12:50:31;5.43;;;2.72;;
25365;SDS011;13315;48.274;-1.900;2022-12-07T12:53:02;3.90;;;2.60;;
25365;SDS011;13315;48.274;-1.900;2022-12-07T13:00:43;4.22;;;2.55;;
25365;SDS011;13315;48.274;-1.900;2022-12-07T13:03:29;5.90;;;2.78;;
25365;SDS011;13315;48.274;-1.900;2022-12-07T13:08:44;8.07;;;3.72;;
25365;SDS011;13315;48.274;-1.900;2022-12-07T13:11:31;3.85;;;3.53;;
25365;SDS011;13315;48.274;-1.900;2022-12-07T13:14:52;7.68;;;3.38;;
25365;SDS011;13315;48.274;-1.900;2022-12-07T13:17:09;3.95;;;2.95;;
25365;SDS011;13315;48.274;-1.900;2022-12-07T13:22:34;3.00;;;2.70;;
25365;SDS011;13315;48.274;-1.900;2022-12-07T13:28:25;3.85;;;3.30;;
25365;SDS011;13315;48.274;-1.900;2022-12-07T13:31:14;6.00;;;4.28;;
25365;SDS011;13315;48.274;-1.900;2022-12-07T13:33:53;3.92;;;3.40;;
25365;SDS011;13315;48.274;-1.900;2022-12-07T13:36:21;4.40;;;3.80;;
25365;SDS011;13315;48.274;-1.900;2022-12-07T13:38:50;3.85;;;3.40;;
25365;SDS011;13315;48.274;-1.900;2022-12-07T13:41:20;6.40;;;4.43;;
25365;SDS011;13315;48.274;-1.900;2022-12-07T13:43:49;4.20;;;3.80;;
25365;SDS011;13315;48.274;-1.900;2022-12-07T13:46:19;5.53;;;3.63;;
25365;SDS011;13315;48.274;-1.900;2022-12-07T13:48:50;4.57;;;3.28;;
25365;SDS011;13315;48.274;-1.900;2022-12-07T13:51:20;4.30;;;2.90;;
25365;SDS011;13315;48.274;-1.900;2022-12-07T13:53:55;4.43;;;2.92;;
25365;SDS011;13315;48.274;-1.900;2022-12-07T13:56:31;5.97;;;3.70;;
25365;SDS011;13315;48.274;-1.900;2022-12-07T13:58:59;4.70;;;2.80;;
25365;SDS011;13315;48.274;-1.900;2022-12-07T14:01:25;3.08;;;2.10;;
25365;SDS011;13315;48.274;-1.900;2022-12-07T14:03:51;4.45;;;2.22;;
25365;SDS011;13315;48.274;-1.900;2022-12-07T14:06:22;4.25;;;2.03;;
25365;SDS011;13315;48.274;-1.900;2022-12-07T14:11:45;4.20;;;2.58;;
25365;SDS011;13315;48.274;-1.900;2022-12-07T14:14:13;6.00;;;2.80;;
25365;SDS011;13315;48.274;-1.900;2022-12-07T14:16:42;5.78;;;2.00;;
25365;SDS011;13315;48.274;-1.900;2022-12-07T14:24:58;3.67;;;2.13;;
25365;SDS011;13315;48.274;-1.900;2022-12-07T14:27:29;5.78;;;2.78;;
25365;SDS011;13315;48.274;-1.900;2022-12-07T14:29:58;4.38;;;3.10;;
25365;SDS011;13315;48.274;-1.900;2022-12-07T14:32:26;5.30;;;2.67;;
25365;SDS011;13315;48.274;-1.900;2022-12-07T14:34:58;5.88;;;3.33;;
25365;SDS011;13315;48.274;-1.900;2022-12-07T14:48:07;12.02;;;8.90;;
25365;SDS011;13315;48.274;-1.900;2022-12-07T14:50:37;17.00;;;15.27;;
25365;SDS011;13315;48.274;-1.900;2022-12-07T14:53:11;18.27;;;16.58;;
25365;SDS011;13315;48.274;-1.900;2022-12-07T14:55:38;17.45;;;15.85;;
25365;SDS011;13315;48.274;-1.900;2022-12-07T14:58:04;15.02;;;13.73;;
25365;SDS011;13315;48.274;-1.900;2022-12-07T15:00:30;16.25;;;14.77;;
25365;SDS011;13315;48.274;-1.900;2022-12-07T15:02:56;20.00;;;18.20;;
25365;SDS011;13315;48.274;-1.900;2022-12-07T15:05:22;9.77;;;5.72;;
25365;SDS011;13315;48.274;-1.900;2022-12-07T15:07:48;11.57;;;6.35;;
25365;SDS011;13315;48.274;-1.900;2022-12-07T15:10:16;15.80;;;6.93;;
25365;SDS011;13315;48.274;-1.900;2022-12-07T15:12:43;9.70;;;6.43;;
25365;SDS011;13315;48.274;-1.900;2022-12-07T15:15:09;12.98;;;7.32;;
25365;SDS011;13315;48.274;-1.900;2022-12-07T15:17:35;14.57;;;7.13;;
25365;SDS011;13315;48.274;-1.900;2022-12-07T15:20:02;12.68;;;6.95;;
25365;SDS011;13315;48.274;-1.900;2022-12-07T15:22:28;11.77;;;6.55;;
25365;SDS011;13315;48.274;-1.900;2022-12-07T15:24:56;13.80;;;7.07;;
25365;SDS011;13315;48.274;-1.900;2022-12-07T15:27:22;12.35;;;7.25;;
25365;SDS011;13315;48.274;-1.900;2022-12-07T15:29:48;13.48;;;6.90;;
25365;SDS011;13315;48.274;-1.900;2022-12-07T15:32:15;11.27;;;7.28;;
25365;SDS011;13315;48.274;-1.900;2022-12-07T15:34:41;14.48;;;7.30;;
25365;SDS011;13315;48.274;-1.900;2022-12-07T15:37:07;12.70;;;7.70;;
25365;SDS011;13315;48.274;-1.900;2022-12-07T15:39:34;14.25;;;8.02;;
25365;SDS011;13315;48.274;-1.900;2022-12-07T15:42:00;16.88;;;8.05;;
25365;SDS011;13315;48.274;-1.900;2022-12-07T15:44:26;14.95;;;8.10;;
25365;SDS011;13315;48.274;-1.900;2022-12-07T15:47:10;16.65;;;9.20;;
25365;SDS011;13315;48.274;-1.900;2022-12-07T15:49:36;20.73;;;10.60;;
25365;SDS011;13315;48.274;-1.900;2022-12-07T15:52:03;19.67;;;10.68;;
25365;SDS011;13315;48.274;-1.900;2022-12-07T15:54:29;23.80;;;10.60;;
25365;SDS011;13315;48.274;-1.900;2022-12-07T15:56:57;18.13;;;10.13;;
25365;SDS011;13315;48.274;-1.900;2022-12-07T15:59:23;16.17;;;9.60;;
25365;SDS011;13315;48.274;-1.900;2022-12-07T16:01:49;17.13;;;9.80;;
25365;SDS011;13315;48.274;-1.900;2022-12-07T16:04:16;16.50;;;9.25;;
25365;SDS011;13315;48.274;-1.900;2022-12-07T16:06:42;21.23;;;10.40;;
25365;SDS011;13315;48.274;-1.900;2022-12-07T16:09:08;20.73;;;9.68;;
25365;SDS011;13315;48.274;-1.900;2022-12-07T16:11:34;13.13;;;8.13;;
25365;SDS011;13315;48.274;-1.900;2022-12-07T16:14:00;18.23;;;9.25;;
25365;SDS011;13315;48.274;-1.900;2022-12-07T16:16:26;18.98;;;9.40;;
25365;SDS011;13315;48.274;-1.900;2022-12-07T16:18:53;21.77;;;10.70;;
25365;SDS011;13315;48.274;-1.900;2022-12-07T16:21:19;17.88;;;9.23;;
25365;SDS011;13315;48.274;-1.900;2022-12-07T16:23:45;18.15;;;9.30;;
25365;SDS011;13315;48.274;-1.900;2022-12-07T16:26:19;16.92;;;8.65;;
25365;SDS011;13315;48.274;-1.900;2022-12-07T16:28:47;20.73;;;10.05;;
25365;SDS011;13315;48.274;-1.900;2022-12-07T16:31:15;16.63;;;9.32;;
25365;SDS011;13315;48.274;-1.900;2022-12-07T16:33:42;17.80;;;9.93;;
25365;SDS011;13315;48.274;-1.900;2022-12-07T16:36:10;16.83;;;9.65;;
25365;SDS011;13315;48.274;-1.900;2022-12-07T16:38:36;13.65;;;8.77;;
25365;SDS011;13315;48.274;-1.900;2022-12-07T16:41:03;11.95;;;8.05;;
25365;SDS011;13315;48.274;-1.900;2022-12-07T16:43:29;14.40;;;8.50;;
25365;SDS011;13315;48.274;-1.900;2022-12-07T16:45:55;16.92;;;9.02;;
25365;SDS011;13315;48.274;-1.900;2022-12-07T16:48:21;13.13;;;8.00;;
25365;SDS011;13315;48.274;-1.900;2022-12-07T16:50:48;14.48;;;8.15;;
25365;SDS011;13315;48.274;-1.900;2022-12-07T16:53:14;16.98;;;9.30;;
25365;SDS011;13315;48.274;-1.900;2022-12-07T16:55:42;19.05;;;8.88;;
25365;SDS011;13315;48.274;-1.900;2022-12-07T16:58:08;14.32;;;8.05;;
25365;SDS011;13315;48.274;-1.900;2022-12-07T17:00:35;13.00;;;8.02;;
25365;SDS011;13315;48.274;-1.900;2022-12-07T17:03:02;17.63;;;9.18;;
25365;SDS011;13315;48.274;-1.900;2022-12-07T17:05:29;15.38;;;9.32;;
25365;SDS011;13315;48.274;-1.900;2022-12-07T17:07:55;16.48;;;8.52;;
25365;SDS011;13315;48.274;-1.900;2022-12-07T17:10:22;14.50;;;9.00;;
25365;SDS011;13315;48.274;-1.900;2022-12-07T17:12:49;22.05;;;10.20;;
25365;SDS011;13315;48.274;-1.900;2022-12-07T17:15:15;15.52;;;9.02;;
25365;SDS011;13315;48.274;-1.900;2022-12-07T17:17:42;15.48;;;8.52;;
25365;SDS011;13315;48.274;-1.900;2022-12-07T17:20:08;17.23;;;8.68;;
25365;SDS011;13315;48.274;-1.900;2022-12-07T17:22:36;16.85;;;8.90;;
25365;SDS011;13315;48.274;-1.900;2022-12-07T17:25:02;16.10;;;9.43;;
25365;SDS011;13315;48.274;-1.900;2022-12-07T17:27:28;17.77;;;9.02;;